createdAt,value
2018-08-07T00:02:50.112Z,22.30
2018-08-07T00:05:18.988Z,22.20
2018-08-07T00:07:48.939Z,22.20
2018-08-07T00:12:48.270Z,22.10
2018-08-07T00:15:17.039Z,22.10
2018-08-07T00:17:45.944Z,22.10
2018-08-07T00:20:16.477Z,22.10
2018-08-07T00:22:45.928Z,22.00
2018-08-07T00:25:15.136Z,22.00
2018-08-07T00:27:43.901Z,22.00
2018-08-07T00:30:19.878Z,21.90
2018-08-07T00:32:53.236Z,21.90
2018-08-07T00:35:22.384Z,21.90
2018-08-07T00:37:50.872Z,21.80
2018-08-07T00:40:19.740Z,21.80
2018-08-07T00:42:48.838Z,21.70
2018-08-07T00:45:18.507Z,21.70
2018-08-07T00:47:47.033Z,21.70
2018-08-07T00:50:19.094Z,21.60
2018-08-07T00:52:48.635Z,21.70
2018-08-07T00:55:18.157Z,21.60
2018-08-07T00:57:47.292Z,21.60
2018-08-07T01:00:16.706Z,21.60
2018-08-07T01:02:45.161Z,21.50
2018-08-07T01:05:15.376Z,21.60
2018-08-07T01:07:43.893Z,21.50
2018-08-07T01:10:14.156Z,21.50
2018-08-07T01:15:13.856Z,21.50
2018-08-07T01:17:42.914Z,21.40
2018-08-07T01:20:14.221Z,21.40
2018-08-07T01:22:42.948Z,21.40
2018-08-07T01:25:18.315Z,21.40
2018-08-07T01:27:46.896Z,21.30
2018-08-07T01:30:19.010Z,21.30
2018-08-07T01:35:15.616Z,21.40
2018-08-07T01:37:44.414Z,21.40
2018-08-07T01:40:13.088Z,21.30
2018-08-07T01:42:41.973Z,21.30
2018-08-07T01:45:11.074Z,21.30
2018-08-07T01:47:39.988Z,21.30
2018-08-07T01:50:10.029Z,21.30
2018-08-07T01:52:38.504Z,21.20
2018-08-07T01:55:08.895Z,21.20
2018-08-07T01:57:37.344Z,21.10
2018-08-07T02:00:08.685Z,21.10
2018-08-07T02:02:37.549Z,21.00
2018-08-07T02:05:08.444Z,21.00
2018-08-07T02:07:36.848Z,20.90
2018-08-07T02:10:07.457Z,20.90
2018-08-07T02:12:35.959Z,20.80
2018-08-07T02:15:04.808Z,20.80
2018-08-07T02:17:33.188Z,20.70
2018-08-07T02:20:01.609Z,20.70
2018-08-07T02:22:30.064Z,20.70
2018-08-07T02:24:58.468Z,20.70
2018-08-07T02:27:26.855Z,20.60
2018-08-07T02:29:55.251Z,20.60
2018-08-07T02:32:23.684Z,20.60
2018-08-07T02:34:52.072Z,20.60
2018-08-07T02:37:20.544Z,20.50
2018-08-07T02:39:48.963Z,20.50
2018-08-07T02:42:17.337Z,20.60
2018-08-07T02:44:45.753Z,20.50
2018-08-07T02:47:14.163Z,20.50
2018-08-07T02:49:42.565Z,20.50
2018-08-07T02:52:10.952Z,20.40
2018-08-07T02:54:39.372Z,20.40
2018-08-07T02:57:07.774Z,20.40
2018-08-07T02:59:36.259Z,20.30
2018-08-07T03:02:04.691Z,20.30
2018-08-07T03:04:33.209Z,20.40
2018-08-07T03:07:01.665Z,20.30
2018-08-07T03:09:30.058Z,20.30
2018-08-07T03:11:58.452Z,20.20
2018-08-07T03:14:26.863Z,20.20
2018-08-07T03:16:55.321Z,20.20
2018-08-07T03:19:23.772Z,20.10
2018-08-07T03:21:52.177Z,20.10
2018-08-07T03:24:20.620Z,20.00
2018-08-07T03:26:49.151Z,20.10
2018-08-07T03:29:17.559Z,20.00
2018-08-07T03:31:45.978Z,20.00
2018-08-07T03:34:14.424Z,19.90
2018-08-07T03:36:42.840Z,19.90
2018-08-07T03:39:13.173Z,19.90
2018-08-07T03:41:41.787Z,19.90
2018-08-07T03:44:10.984Z,19.90
2018-08-07T03:46:39.759Z,19.90
2018-08-07T03:49:09.010Z,19.90
2018-08-07T03:51:37.409Z,19.90
2018-08-07T03:54:05.879Z,19.90
2018-08-07T03:56:34.331Z,19.80
2018-08-07T03:59:02.972Z,19.90
2018-08-07T04:01:31.458Z,19.90
2018-08-07T04:03:59.939Z,19.80
2018-08-07T04:06:28.395Z,19.80
2018-08-07T04:08:56.808Z,19.80
2018-08-07T04:11:25.342Z,19.80
2018-08-07T04:13:53.721Z,19.80
2018-08-07T04:16:22.160Z,19.80
2018-08-07T04:18:50.596Z,20.00
2018-08-07T04:21:18.976Z,20.10
2018-08-07T04:23:47.372Z,20.00
2018-08-07T04:26:15.864Z,19.90
2018-08-07T04:28:44.400Z,19.90
2018-08-07T04:31:12.820Z,19.90
2018-08-07T04:33:41.276Z,19.90
2018-08-07T04:36:11.042Z,19.90
2018-08-07T04:38:39.502Z,20.00
2018-08-07T04:41:07.957Z,20.00
2018-08-07T04:43:36.396Z,20.00
2018-08-07T04:46:04.796Z,20.00
2018-08-07T04:48:33.656Z,20.00
2018-08-07T04:51:02.158Z,20.00
2018-08-07T04:53:30.615Z,20.00
2018-08-07T04:55:59.077Z,20.00
2018-08-07T04:58:27.589Z,20.00
2018-08-07T05:00:58.026Z,20.00
2018-08-07T05:03:26.704Z,20.00
2018-08-07T05:05:55.340Z,20.00
2018-08-07T05:08:23.785Z,20.10
2018-08-07T05:10:52.231Z,20.10
2018-08-07T05:13:20.645Z,20.10
2018-08-07T05:15:49.084Z,20.20
2018-08-07T05:18:17.524Z,20.30
2018-08-07T05:20:45.999Z,20.40
2018-08-07T05:23:14.388Z,20.40
2018-08-07T05:25:42.793Z,20.40
2018-08-07T05:28:11.268Z,20.50
2018-08-07T05:30:39.702Z,20.60
2018-08-07T05:33:08.170Z,20.70
2018-08-07T05:35:36.659Z,20.70
2018-08-07T05:38:05.185Z,20.80
2018-08-07T05:40:33.624Z,20.90
2018-08-07T05:43:02.008Z,21.00
2018-08-07T05:45:30.506Z,21.20
2018-08-07T05:47:58.916Z,21.30
2018-08-07T05:50:27.466Z,21.30
2018-08-07T05:52:55.757Z,21.40
2018-08-07T05:55:24.170Z,21.60
2018-08-07T05:57:52.700Z,21.80
2018-08-07T06:00:21.364Z,21.90
2018-08-07T06:02:50.669Z,22.10
2018-08-07T06:05:19.134Z,22.80
2018-08-07T06:07:48.346Z,23.90
2018-08-07T06:10:16.835Z,25.20
2018-08-07T06:12:45.276Z,26.40
2018-08-07T06:15:15.596Z,27.20
2018-08-07T06:17:44.936Z,27.90
2018-08-07T06:20:13.735Z,28.40
2018-08-07T06:22:42.173Z,29.00
2018-08-07T06:25:11.317Z,29.20
2018-08-07T06:27:39.949Z,29.60
2018-08-07T06:30:13.393Z,29.90
2018-08-07T06:32:41.887Z,30.10
2018-08-07T06:35:10.510Z,30.30
2018-08-07T06:37:38.958Z,30.30
2018-08-07T06:40:09.549Z,29.90
2018-08-07T06:42:38.160Z,29.40
2018-08-07T06:45:07.627Z,28.90
2018-08-07T06:47:36.142Z,28.10
2018-08-07T06:50:07.114Z,27.60
2018-08-07T06:52:35.571Z,27.00
2018-08-07T06:55:04.275Z,26.70
2018-08-07T06:57:32.727Z,26.60
2018-08-07T07:00:01.454Z,26.60
2018-08-07T07:04:58.282Z,26.50
2018-08-07T07:07:26.964Z,26.40
2018-08-07T07:09:55.662Z,26.50
2018-08-07T07:12:24.193Z,26.50
2018-08-07T07:14:53.198Z,26.60
2018-08-07T07:17:21.974Z,26.60
2018-08-07T07:19:50.648Z,26.70
2018-08-07T07:24:51.082Z,26.80
2018-08-07T07:27:19.582Z,26.90
2018-08-07T07:29:48.308Z,26.90
2018-08-07T07:32:16.732Z,27.00
2018-08-07T07:34:45.162Z,27.10
2018-08-07T07:37:13.600Z,27.20
2018-08-07T07:39:42.030Z,27.20
2018-08-07T07:42:10.652Z,27.30
2018-08-07T07:44:39.078Z,27.30
2018-08-07T07:47:07.557Z,27.40
2018-08-07T07:49:35.948Z,27.50
2018-08-07T07:52:04.709Z,27.70
2018-08-07T07:54:33.142Z,27.90
2018-08-07T07:57:01.560Z,28.00
2018-08-07T07:59:30.032Z,28.10
2018-08-07T08:01:58.456Z,28.20
2018-08-07T08:04:27.000Z,28.30
2018-08-07T08:06:56.500Z,28.40
2018-08-07T08:11:53.329Z,28.60
2018-08-07T08:14:21.796Z,28.70
2018-08-07T08:16:50.266Z,28.80
2018-08-07T08:19:19.096Z,28.90
2018-08-07T08:21:47.538Z,28.90
2018-08-07T08:24:16.026Z,29.10
2018-08-07T08:26:44.490Z,29.10
2018-08-07T08:29:13.028Z,29.20
2018-08-07T08:31:41.372Z,29.40
2018-08-07T08:34:09.796Z,29.50
2018-08-07T08:36:38.232Z,29.50
2018-08-07T08:39:09.799Z,29.60
2018-08-07T08:41:38.672Z,29.70
2018-08-07T08:44:07.500Z,29.80
2018-08-07T08:46:36.146Z,29.90
2018-08-07T08:49:04.620Z,30.00
2018-08-07T08:51:33.059Z,30.00
2018-08-07T08:54:01.711Z,30.10
2018-08-07T08:56:30.369Z,30.20
2018-08-07T08:58:58.795Z,30.30
2018-08-07T09:01:27.304Z,30.50
2018-08-07T09:03:55.819Z,30.30
2018-08-07T09:06:24.260Z,30.30
2018-08-07T09:08:52.700Z,30.30
2018-08-07T09:11:21.236Z,30.50
2018-08-07T09:13:49.649Z,30.60
2018-08-07T09:16:18.100Z,30.80
2018-08-07T09:18:46.672Z,30.90
2018-08-07T09:21:15.132Z,31.00
2018-08-07T09:23:43.583Z,31.20
2018-08-07T09:26:12.072Z,31.30
2018-08-07T09:28:40.501Z,31.40
2018-08-07T09:31:08.924Z,31.30
2018-08-07T09:33:37.382Z,31.40
2018-08-07T09:36:05.848Z,31.50
2018-08-07T09:38:34.263Z,31.50
2018-08-07T09:41:02.756Z,31.60
2018-08-07T09:43:31.157Z,31.80
2018-08-07T09:45:59.663Z,31.80
2018-08-07T09:48:28.076Z,31.80
2018-08-07T09:50:56.648Z,31.80
2018-08-07T09:53:25.393Z,31.80
2018-08-07T09:55:53.848Z,31.80
2018-08-07T09:58:22.388Z,31.90
2018-08-07T10:00:56.144Z,32.10
2018-08-07T10:03:24.652Z,32.10
2018-08-07T10:05:53.101Z,32.10
2018-08-07T10:08:21.607Z,32.20
2018-08-07T10:10:50.005Z,32.20
2018-08-07T10:13:18.452Z,32.30
2018-08-07T10:15:46.919Z,32.30
2018-08-07T10:18:15.497Z,32.20
2018-08-07T10:20:43.932Z,31.70
2018-08-07T10:23:12.433Z,31.80
2018-08-07T10:25:40.860Z,32.00
2018-08-07T10:28:09.307Z,32.20
2018-08-07T10:30:37.832Z,32.10
2018-08-07T10:33:06.548Z,32.20
2018-08-07T10:35:35.089Z,32.20
2018-08-07T10:38:03.629Z,32.20
2018-08-07T10:40:32.193Z,32.20
2018-08-07T10:43:00.583Z,32.30
2018-08-07T10:45:29.053Z,32.30
2018-08-07T10:47:57.608Z,32.10
2018-08-07T10:50:27.700Z,31.90
2018-08-07T10:52:56.835Z,32.00
2018-08-07T10:55:25.813Z,32.10
2018-08-07T10:57:57.027Z,32.40
2018-08-07T11:00:27.710Z,32.60
2018-08-07T11:02:57.207Z,32.70
2018-08-07T11:05:26.711Z,32.60
2018-08-07T11:07:55.356Z,32.80
2018-08-07T11:10:24.134Z,32.90
2018-08-07T11:12:53.134Z,33.00
2018-08-07T11:15:27.784Z,33.20
2018-08-07T11:17:57.275Z,33.30
2018-08-07T11:20:26.023Z,33.40
2018-08-07T11:22:55.865Z,32.70
2018-08-07T11:25:25.527Z,32.50
2018-08-07T11:27:54.033Z,32.50
2018-08-07T11:30:24.793Z,32.70
2018-08-07T11:32:53.916Z,32.60
2018-08-07T11:35:23.211Z,32.70
2018-08-07T11:38:36.040Z,32.80
2018-08-07T11:41:04.501Z,33.10
2018-08-07T11:43:33.001Z,33.30
2018-08-07T11:46:01.553Z,33.40
2018-08-07T11:48:29.993Z,33.30
2018-08-07T11:50:58.460Z,33.50
2018-08-07T11:53:27.102Z,33.40
2018-08-07T11:55:55.503Z,33.60
2018-08-07T11:58:23.917Z,33.60
2018-08-07T12:00:52.465Z,33.60
2018-08-07T12:03:20.932Z,33.60
2018-08-07T12:05:49.406Z,33.90
2018-08-07T12:08:17.860Z,33.90
2018-08-07T12:10:46.293Z,33.90
2018-08-07T12:13:15.389Z,33.70
2018-08-07T12:15:43.875Z,33.80
2018-08-07T12:18:12.294Z,33.60
2018-08-07T12:20:40.727Z,33.70
2018-08-07T12:23:09.172Z,33.60
2018-08-07T12:25:37.713Z,33.40
2018-08-07T12:28:06.195Z,33.30
2018-08-07T12:30:34.651Z,33.30
2018-08-07T12:33:03.129Z,33.50
2018-08-07T12:35:31.601Z,33.70
2018-08-07T12:38:00.029Z,33.80
2018-08-07T12:40:30.021Z,33.90
2018-08-07T12:43:01.292Z,34.00
2018-08-07T12:45:30.229Z,33.90
2018-08-07T12:47:58.836Z,33.80
2018-08-07T12:50:27.479Z,33.70
2018-08-07T12:52:55.978Z,33.50
2018-08-07T12:55:24.961Z,33.50
2018-08-07T12:57:54.044Z,33.90
2018-08-07T13:00:24.377Z,34.10
2018-08-07T13:02:52.915Z,34.30
2018-08-07T13:05:21.404Z,34.40
2018-08-07T13:07:49.851Z,34.10
2018-08-07T13:10:19.692Z,34.10
2018-08-07T13:12:48.885Z,34.20
2018-08-07T13:15:18.500Z,34.30
2018-08-07T13:17:47.506Z,34.30
2018-08-07T13:20:16.006Z,34.20
2018-08-07T13:22:45.290Z,34.20
2018-08-07T13:25:15.835Z,34.30
2018-08-07T13:27:44.290Z,34.20
2018-08-07T13:30:16.246Z,34.10
2018-08-07T13:32:44.776Z,34.00
2018-08-07T13:35:13.511Z,34.10
2018-08-07T13:37:43.444Z,33.60
2018-08-07T13:40:14.157Z,33.90
2018-08-07T13:42:42.732Z,33.90
2018-08-07T13:45:16.256Z,34.10
2018-08-07T13:47:44.938Z,34.20
2018-08-07T13:50:16.137Z,34.00
2018-08-07T13:52:45.777Z,34.20
2018-08-07T13:55:15.446Z,34.10
2018-08-07T13:57:44.393Z,33.90
2018-08-07T14:00:16.800Z,34.00
2018-08-07T14:02:45.960Z,33.80
2018-08-07T14:05:15.471Z,34.00
2018-08-07T14:07:44.376Z,34.10
2018-08-07T14:10:14.016Z,34.00
2018-08-07T14:12:42.838Z,34.30
2018-08-07T14:15:13.001Z,34.40
2018-08-07T14:17:42.490Z,34.50
2018-08-07T14:20:12.343Z,34.70
2018-08-07T14:22:40.991Z,34.50
2018-08-07T14:25:12.600Z,34.60
2018-08-07T14:27:41.109Z,34.70
2018-08-07T14:30:17.688Z,34.70
2018-08-07T14:32:46.527Z,34.60
2018-08-07T14:35:15.054Z,34.60
2018-08-07T14:37:44.725Z,34.60
2018-08-07T14:40:14.924Z,34.40
2018-08-07T14:42:45.037Z,34.30
2018-08-07T14:45:14.656Z,34.20
2018-08-07T14:47:43.868Z,33.90
2018-08-07T14:50:16.316Z,34.00
2018-08-07T14:52:44.858Z,34.00
2018-08-07T14:55:13.383Z,34.20
2018-08-07T14:57:42.592Z,34.30
2018-08-07T15:00:14.333Z,34.10
2018-08-07T15:02:43.196Z,34.00
2018-08-07T15:05:11.673Z,34.00
2018-08-07T15:07:40.169Z,33.90
2018-08-07T15:10:12.371Z,34.10
2018-08-07T15:12:40.949Z,34.30
2018-08-07T15:15:16.364Z,34.40
2018-08-07T15:17:45.260Z,34.60
2018-08-07T15:20:15.798Z,34.70
2018-08-07T15:22:45.845Z,34.40
2018-08-07T15:25:15.612Z,34.40
2018-08-07T15:27:44.340Z,34.40
2018-08-07T15:30:14.952Z,34.20
2018-08-07T15:32:44.168Z,34.30
2018-08-07T15:35:13.264Z,34.50
2018-08-07T15:37:41.816Z,34.50
2018-08-07T15:40:11.329Z,34.50
2018-08-07T15:42:40.753Z,34.40
2018-08-07T15:45:10.148Z,34.40
2018-08-07T15:47:38.708Z,34.40
2018-08-07T15:50:09.447Z,34.50
2018-08-07T15:52:38.543Z,34.70
2018-08-07T15:55:07.124Z,34.60
2018-08-07T15:57:35.628Z,34.60
2018-08-07T16:00:06.013Z,34.70
2018-08-07T16:02:34.540Z,34.60
2018-08-07T16:05:03.532Z,34.60
2018-08-07T16:07:31.944Z,34.40
2018-08-07T16:10:00.479Z,34.50
2018-08-07T16:12:28.995Z,34.50
2018-08-07T16:14:57.400Z,34.60
2018-08-07T16:17:25.916Z,34.40
2018-08-07T16:19:54.389Z,34.40
2018-08-07T16:22:22.986Z,34.40
2018-08-07T16:24:51.451Z,34.30
2018-08-07T16:27:19.959Z,34.00
2018-08-07T16:29:48.392Z,34.20
2018-08-07T16:32:16.849Z,34.10
2018-08-07T16:34:45.332Z,34.20
2018-08-07T16:37:13.770Z,34.10
2018-08-07T16:39:42.221Z,34.10
2018-08-07T16:42:10.685Z,34.10
2018-08-07T16:44:39.163Z,33.90
2018-08-07T16:47:07.692Z,33.80
2018-08-07T16:49:36.308Z,33.80
2018-08-07T16:52:04.912Z,33.80
2018-08-07T16:54:34.308Z,33.80
2018-08-07T16:57:03.030Z,33.70
2018-08-07T16:59:31.469Z,34.00
2018-08-07T17:01:59.957Z,34.10
2018-08-07T17:04:28.616Z,34.10
2018-08-07T17:06:57.079Z,34.20
2018-08-07T17:09:25.637Z,34.30
2018-08-07T17:11:54.280Z,34.20
2018-08-07T17:14:22.781Z,34.20
2018-08-07T17:16:51.400Z,34.30
2018-08-07T17:19:19.878Z,34.20
2018-08-07T17:21:48.383Z,34.20
2018-08-07T17:24:16.822Z,34.10
2018-08-07T17:26:45.300Z,34.10
2018-08-07T17:29:13.872Z,34.10
2018-08-07T17:31:42.335Z,34.00
2018-08-07T17:34:10.796Z,34.00
2018-08-07T17:36:39.317Z,34.00
2018-08-07T17:39:08.810Z,33.90
2018-08-07T17:41:37.672Z,33.80
2018-08-07T17:44:06.577Z,33.60
2018-08-07T17:46:35.144Z,33.60
2018-08-07T17:49:03.728Z,33.50
2018-08-07T17:51:32.408Z,33.40
2018-08-07T17:54:01.013Z,33.30
2018-08-07T17:56:29.896Z,33.20
2018-08-07T17:58:58.424Z,33.30
2018-08-07T18:01:26.864Z,33.20
2018-08-07T18:03:55.323Z,33.20
2018-08-07T18:06:23.899Z,33.20
2018-08-07T18:08:52.405Z,33.20
2018-08-07T18:11:20.903Z,33.10
2018-08-07T18:13:49.477Z,33.00
2018-08-07T18:16:18.026Z,32.90
2018-08-07T18:18:46.488Z,32.90
2018-08-07T18:21:15.001Z,32.70
2018-08-07T18:23:43.511Z,32.60
2018-08-07T18:26:11.976Z,32.60
2018-08-07T18:28:40.384Z,32.40
2018-08-07T18:31:09.010Z,32.30
2018-08-07T18:33:37.481Z,32.20
2018-08-07T18:36:05.980Z,32.10
2018-08-07T18:38:34.510Z,32.00
2018-08-07T18:41:02.980Z,31.90
2018-08-07T18:43:31.443Z,31.70
2018-08-07T18:45:59.931Z,31.70
2018-08-07T18:48:28.476Z,31.60
2018-08-07T18:50:57.044Z,31.50
2018-08-07T18:53:25.612Z,31.40
2018-08-07T18:55:54.136Z,31.40
2018-08-07T18:58:22.580Z,31.30
2018-08-07T19:00:51.256Z,31.30
2018-08-07T19:03:19.757Z,31.20
2018-08-07T19:05:48.248Z,31.10
2018-08-07T19:08:16.705Z,31.00
2018-08-07T19:10:45.194Z,30.90
2018-08-07T19:13:13.729Z,30.60
2018-08-07T19:15:42.305Z,30.40
2018-08-07T19:18:10.910Z,30.10
2018-08-07T19:20:39.389Z,29.90
2018-08-07T19:23:07.957Z,29.80
2018-08-07T19:25:36.432Z,29.50
2018-08-07T19:28:04.953Z,29.40
2018-08-07T19:30:33.445Z,29.20
2018-08-07T19:33:02.083Z,29.10
2018-08-07T19:35:30.652Z,29.10
2018-08-07T19:37:59.100Z,28.90
2018-08-07T19:40:27.572Z,28.90
2018-08-07T19:42:56.077Z,28.70
2018-08-07T19:45:24.531Z,28.60
2018-08-07T19:47:52.956Z,28.50
2018-08-07T19:50:22.302Z,28.40
2018-08-07T19:52:51.484Z,28.20
2018-08-07T19:55:21.417Z,28.10
2018-08-07T19:57:49.903Z,28.00
2018-08-07T20:00:24.761Z,27.90
2018-08-07T20:02:53.552Z,27.80
2018-08-07T20:05:22.212Z,27.80
2018-08-07T20:07:51.430Z,27.80
2018-08-07T20:10:20.544Z,27.90
2018-08-07T20:12:49.169Z,27.80
2018-08-07T20:15:24.244Z,27.60
2018-08-07T20:17:53.348Z,27.60
2018-08-07T20:20:22.592Z,27.50
2018-08-07T20:22:51.132Z,27.40
2018-08-07T20:25:19.740Z,27.30
2018-08-07T20:27:48.500Z,27.20
2018-08-07T20:30:18.552Z,27.20
2018-08-07T20:32:48.107Z,27.20
2018-08-07T20:35:16.644Z,27.10
2018-08-07T20:37:45.247Z,27.00
2018-08-07T20:40:17.085Z,27.00
2018-08-07T20:42:45.972Z,26.90
2018-08-07T20:45:15.151Z,26.80
2018-08-07T20:47:43.784Z,26.80
2018-08-07T20:50:16.101Z,26.70
2018-08-07T20:52:45.187Z,26.60
2018-08-07T20:55:14.397Z,26.60
2018-08-07T20:57:42.952Z,26.60
2018-08-07T21:00:17.920Z,26.50
2018-08-07T21:02:47.000Z,26.40
2018-08-07T21:05:15.517Z,26.40
2018-08-07T21:07:44.156Z,26.40
2018-08-07T21:10:15.575Z,26.50
2018-08-07T21:12:44.103Z,26.50
2018-08-07T21:15:12.969Z,26.50
2018-08-07T21:17:41.584Z,26.60
2018-08-07T21:20:12.525Z,26.50
2018-08-07T21:22:41.192Z,26.50
2018-08-07T21:25:12.128Z,26.50
2018-08-07T21:27:40.835Z,26.50
2018-08-07T21:30:12.825Z,26.50
2018-08-07T21:32:41.574Z,26.50
2018-08-07T21:35:11.274Z,26.40
2018-08-07T21:37:40.531Z,26.40
2018-08-07T21:40:11.440Z,26.40
2018-08-07T21:42:40.379Z,26.30
2018-08-07T21:45:09.007Z,26.20
2018-08-07T21:47:38.069Z,26.10
2018-08-07T21:50:11.604Z,26.10
2018-08-07T21:52:40.220Z,26.10
2018-08-07T21:55:11.115Z,26.00
2018-08-07T21:57:39.819Z,25.90
2018-08-07T22:00:12.916Z,25.90
2018-08-07T22:02:41.762Z,25.80
2018-08-07T22:05:10.396Z,25.80
2018-08-07T22:07:39.361Z,25.80
2018-08-07T22:10:12.823Z,25.90
2018-08-07T22:12:41.445Z,25.90
2018-08-07T22:15:10.360Z,25.90
2018-08-07T22:17:39.269Z,25.90
2018-08-07T22:20:08.750Z,25.90
2018-08-07T22:22:37.244Z,25.80
2018-08-07T22:25:06.824Z,25.80
2018-08-07T22:27:35.389Z,25.70
2018-08-07T22:30:05.285Z,25.70
2018-08-07T22:32:33.808Z,25.60
2018-08-07T22:35:02.391Z,25.60
2018-08-07T22:37:30.828Z,25.60
2018-08-07T22:39:59.284Z,25.50
2018-08-07T22:42:27.828Z,25.60
2018-08-07T22:44:56.263Z,25.60
2018-08-07T22:47:24.736Z,25.50
2018-08-07T22:49:53.228Z,25.50
2018-08-07T22:52:21.681Z,25.50
2018-08-07T22:54:50.183Z,25.50
2018-08-07T22:57:18.621Z,25.40
2018-08-07T22:59:47.069Z,25.40
2018-08-07T23:02:15.524Z,25.30
2018-08-07T23:04:43.950Z,25.30
2018-08-07T23:07:12.388Z,25.20
2018-08-07T23:09:40.853Z,25.20
2018-08-07T23:12:09.348Z,25.20
2018-08-07T23:14:37.791Z,25.10
2018-08-07T23:17:06.615Z,25.10
2018-08-07T23:19:35.436Z,25.00
2018-08-07T23:22:03.910Z,25.00
2018-08-07T23:24:32.512Z,25.00
2018-08-07T23:27:00.951Z,25.10
2018-08-07T23:29:29.372Z,25.10
2018-08-07T23:31:57.833Z,25.20
2018-08-07T23:34:26.360Z,25.10
2018-08-07T23:36:54.792Z,25.10
2018-08-07T23:39:23.201Z,25.10
2018-08-07T23:41:51.633Z,25.10
2018-08-07T23:44:20.066Z,25.10
2018-08-07T23:46:48.744Z,25.00
2018-08-07T23:49:17.172Z,25.00
2018-08-07T23:51:45.601Z,24.90
2018-08-07T23:54:14.077Z,24.90
2018-08-07T23:56:42.532Z,24.80
2018-08-07T23:59:10.968Z,24.80
